sensor_id;sensor_type;location;lat;lon;timestamp;pressure;altitude;pressure_sealevel;temperature;humidity
44079;BME280;29744;49.078;12.878;2023-03-20T00:02:50;96534.47;;;14.58;34.42
44079;BME280;29744;49.078;12.878;2023-03-20T00:07:51;96536.69;;;14.56;34.80
44079;BME280;29744;49.078;12.878;2023-03-20T00:12:52;96535.09;;;14.55;34.74
44079;BME280;29744;49.078;12.878;2023-03-20T00:17:53;96533.53;;;14.54;34.37
44079;BME280;29744;49.078;12.878;2023-03-20T00:22:54;96541.13;;;14.52;34.43
44079;BME280;29744;49.078;12.878;2023-03-20T00:27:55;96536.84;;;14.50;34.74
44079;BME280;29744;49.078;12.878;2023-03-20T00:32:57;96546.06;;;14.49;34.81
44079;BME280;29744;49.078;12.878;2023-03-20T00:37:57;96539.09;;;14.48;34.58
44079;BME280;29744;49.078;12.878;2023-03-20T00:43:00;96541.78;;;14.48;34.33
44079;BME280;29744;49.078;12.878;2023-03-20T00:48:01;96530.53;;;14.46;34.49
44079;BME280;29744;49.078;12.878;2023-03-20T00:53:02;96540.53;;;14.46;34.40
44079;BME280;29744;49.078;12.878;2023-03-20T00:58:03;96538.13;;;14.44;34.88
44079;BME280;29744;49.078;12.878;2023-03-20T01:03:14;96539.25;;;14.43;34.51
44079;BME280;29744;49.078;12.878;2023-03-20T01:08:21;96533.38;;;14.41;34.32
44079;BME280;29744;49.078;12.878;2023-03-20T01:13:28;96528.31;;;14.40;34.38
44079;BME280;29744;49.078;12.878;2023-03-20T01:18:28;96525.94;;;14.38;34.83
44079;BME280;29744;49.078;12.878;2023-03-20T01:23:28;96537.84;;;14.37;34.41
44079;BME280;29744;49.078;12.878;2023-03-20T01:28:30;96543.22;;;14.37;34.62
44079;BME280;29744;49.078;12.878;2023-03-20T01:33:30;96529.28;;;14.35;34.71
44079;BME280;29744;49.078;12.878;2023-03-20T01:38:31;96548.94;;;14.36;34.65
44079;BME280;29744;49.078;12.878;2023-03-20T01:43:32;96538.47;;;14.34;34.71
44079;BME280;29744;49.078;12.878;2023-03-20T01:48:57;96539.13;;;14.31;34.88
44079;BME280;29744;49.078;12.878;2023-03-20T01:54:12;96532.59;;;14.32;34.72
44079;BME280;29744;49.078;12.878;2023-03-20T01:59:28;96531.03;;;14.31;34.43
44079;BME280;29744;49.078;12.878;2023-03-20T02:04:34;96528.31;;;14.31;35.00
44079;BME280;29744;49.078;12.878;2023-03-20T02:09:36;96522.13;;;14.31;34.56
44079;BME280;29744;49.078;12.878;2023-03-20T02:14:36;96514.34;;;14.29;34.42
44079;BME280;29744;49.078;12.878;2023-03-20T02:19:47;96518.97;;;14.29;34.88
44079;BME280;29744;49.078;12.878;2023-03-20T02:30:40;96519.91;;;14.24;34.93
44079;BME280;29744;49.078;12.878;2023-03-20T02:36:46;96522.94;;;14.23;34.81
44079;BME280;29744;49.078;12.878;2023-03-20T02:41:38;96526.44;;;14.23;35.03
44079;BME280;29744;49.078;12.878;2023-03-20T02:46:51;96530.22;;;14.22;34.90
44079;BME280;29744;49.078;12.878;2023-03-20T02:52:04;96533.72;;;14.23;34.85
44079;BME280;29744;49.078;12.878;2023-03-20T02:57:20;96532.09;;;14.22;34.70
44079;BME280;29744;49.078;12.878;2023-03-20T03:02:47;96537.81;;;14.20;34.74
44079;BME280;29744;49.078;12.878;2023-03-20T03:07:51;96536.22;;;14.19;34.82
44079;BME280;29744;49.078;12.878;2023-03-20T03:12:56;96534.34;;;14.19;34.50
44079;BME280;29744;49.078;12.878;2023-03-20T03:17:59;96538.94;;;14.19;34.77
44079;BME280;29744;49.078;12.878;2023-03-20T03:23:02;96540.38;;;14.16;34.67
44079;BME280;29744;49.078;12.878;2023-03-20T03:28:07;96541.94;;;14.17;34.77
44079;BME280;29744;49.078;12.878;2023-03-20T03:39:05;96540.53;;;14.11;34.85
44079;BME280;29744;49.078;12.878;2023-03-20T03:49:15;96545.59;;;14.13;34.85
44079;BME280;29744;49.078;12.878;2023-03-20T03:54:25;96554.81;;;14.12;34.66
44079;BME280;29744;49.078;12.878;2023-03-20T03:59:33;96551.31;;;14.11;35.01
44079;BME280;29744;49.078;12.878;2023-03-20T04:04:38;96554.00;;;14.11;34.67
44079;BME280;29744;49.078;12.878;2023-03-20T04:09:41;96565.91;;;14.10;35.02
44079;BME280;29744;49.078;12.878;2023-03-20T04:14:41;96565.91;;;14.10;34.90
44079;BME280;29744;49.078;12.878;2023-03-20T04:19:41;96562.41;;;14.10;34.65
44079;BME280;29744;49.078;12.878;2023-03-20T04:24:42;96563.53;;;14.09;35.14
44079;BME280;29744;49.078;12.878;2023-03-20T04:29:42;96568.13;;;14.08;34.84
44079;BME280;29744;49.078;12.878;2023-03-20T04:34:43;96573.53;;;14.08;35.15
44079;BME280;29744;49.078;12.878;2023-03-20T04:39:43;96572.72;;;14.08;34.68
44079;BME280;29744;49.078;12.878;2023-03-20T04:44:44;96580.03;;;14.07;34.81
44079;BME280;29744;49.078;12.878;2023-03-20T04:49:44;96579.38;;;14.10;35.09
44079;BME280;29744;49.078;12.878;2023-03-20T04:54:45;96575.25;;;14.13;34.88
44079;BME280;29744;49.078;12.878;2023-03-20T04:59:45;96590.66;;;14.21;34.96
44079;BME280;29744;49.078;12.878;2023-03-20T05:04:45;96586.09;;;14.30;34.96
44079;BME280;29744;49.078;12.878;2023-03-20T05:09:46;96581.16;;;14.41;34.67
44079;BME280;29744;49.078;12.878;2023-03-20T05:14:46;96585.44;;;14.50;34.83
44079;BME280;29744;49.078;12.878;2023-03-20T05:24:46;96586.50;;;14.75;34.75
44079;BME280;29744;49.078;12.878;2023-03-20T05:29:47;96590.44;;;14.87;34.20
44079;BME280;29744;49.078;12.878;2023-03-20T05:34:47;96593.28;;;14.99;34.62
44079;BME280;29744;49.078;12.878;2023-03-20T05:39:47;96596.13;;;15.11;34.17
44079;BME280;29744;49.078;12.878;2023-03-20T05:44:47;96594.31;;;15.24;34.21
44079;BME280;29744;49.078;12.878;2023-03-20T05:49:48;96600.63;;;15.36;34.16
44079;BME280;29744;49.078;12.878;2023-03-20T05:54:48;96596.44;;;15.48;34.29
44079;BME280;29744;49.078;12.878;2023-03-20T05:59:48;96613.88;;;15.59;34.04
44079;BME280;29744;49.078;12.878;2023-03-20T06:04:48;96611.28;;;15.71;34.09
44079;BME280;29744;49.078;12.878;2023-03-20T06:09:49;96617.13;;;15.82;33.95
44079;BME280;29744;49.078;12.878;2023-03-20T06:14:49;96621.38;;;15.91;34.11
44079;BME280;29744;49.078;12.878;2023-03-20T06:19:49;96626.72;;;16.00;33.78
44079;BME280;29744;49.078;12.878;2023-03-20T06:24:50;96630.50;;;16.07;33.71
44079;BME280;29744;49.078;12.878;2023-03-20T06:29:51;96633.47;;;16.15;33.60
44079;BME280;29744;49.078;12.878;2023-03-20T06:34:51;96648.38;;;16.21;33.22
44079;BME280;29744;49.078;12.878;2023-03-20T06:39:51;96646.28;;;16.26;33.39
44079;BME280;29744;49.078;12.878;2023-03-20T06:44:51;96653.41;;;16.31;33.66
44079;BME280;29744;49.078;12.878;2023-03-20T06:49:52;96661.66;;;16.34;33.22
44079;BME280;29744;49.078;12.878;2023-03-20T06:54:52;96673.72;;;16.37;33.57
44079;BME280;29744;49.078;12.878;2023-03-20T06:59:52;96670.69;;;16.38;33.23
44079;BME280;29744;49.078;12.878;2023-03-20T07:04:52;96659.06;;;16.38;33.20
44079;BME280;29744;49.078;12.878;2023-03-20T07:09:53;96672.63;;;16.38;32.94
44079;BME280;29744;49.078;12.878;2023-03-20T07:14:54;96673.72;;;16.37;32.78
44079;BME280;29744;49.078;12.878;2023-03-20T07:19:55;96671.81;;;16.37;32.98
44079;BME280;29744;49.078;12.878;2023-03-20T07:24:56;96675.66;;;16.36;33.21
44079;BME280;29744;49.078;12.878;2023-03-20T07:29:56;96677.88;;;16.34;33.23
44079;BME280;29744;49.078;12.878;2023-03-20T07:34:57;96676.63;;;16.32;33.30
44079;BME280;29744;49.078;12.878;2023-03-20T07:39:57;96682.38;;;16.30;33.14
44079;BME280;29744;49.078;12.878;2023-03-20T07:44:57;96677.63;;;16.27;33.55
44079;BME280;29744;49.078;12.878;2023-03-20T07:49:58;96678.28;;;16.24;33.23
44079;BME280;29744;49.078;12.878;2023-03-20T07:54:58;96680.97;;;16.24;33.11
44079;BME280;29744;49.078;12.878;2023-03-20T07:59:58;96688.97;;;16.21;33.36
44079;BME280;29744;49.078;12.878;2023-03-20T08:04:59;96695.50;;;16.20;33.39
44079;BME280;29744;49.078;12.878;2023-03-20T08:09:59;96689.63;;;16.18;33.45
44079;BME280;29744;49.078;12.878;2023-03-20T08:14:59;96689.94;;;16.16;33.25
44079;BME280;29744;49.078;12.878;2023-03-20T08:20:00;96685.19;;;16.13;33.06
44079;BME280;29744;49.078;12.878;2023-03-20T08:25:00;96683.94;;;16.10;33.33
44079;BME280;29744;49.078;12.878;2023-03-20T08:30:01;96685.38;;;16.08;33.14
44079;BME280;29744;49.078;12.878;2023-03-20T08:35:01;96680.63;;;16.05;33.44
44079;BME280;29744;49.078;12.878;2023-03-20T08:40:01;96688.59;;;16.01;33.44
44079;BME280;29744;49.078;12.878;2023-03-20T08:45:02;96690.53;;;16.01;33.54
44079;BME280;29744;49.078;12.878;2023-03-20T08:50:02;96688.47;;;15.98;33.40
44079;BME280;29744;49.078;12.878;2023-03-20T08:55:03;96686.88;;;15.97;33.71
44079;BME280;29744;49.078;12.878;2023-03-20T09:00:05;96688.31;;;15.94;33.67
44079;BME280;29744;49.078;12.878;2023-03-20T09:05:06;96685.47;;;15.91;33.73
44079;BME280;29744;49.078;12.878;2023-03-20T09:10:08;96689.63;;;15.88;33.32
44079;BME280;29744;49.078;12.878;2023-03-20T09:15:09;96687.56;;;15.85;33.24
44079;BME280;29744;49.078;12.878;2023-03-20T09:20:09;96674.72;;;15.82;33.42
44079;BME280;29744;49.078;12.878;2023-03-20T09:25:11;96670.25;;;15.77;33.87
44079;BME280;29744;49.078;12.878;2023-03-20T09:30:12;96670.56;;;15.76;33.37
44079;BME280;29744;49.078;12.878;2023-03-20T09:35:12;96670.44;;;15.72;33.70
44079;BME280;29744;49.078;12.878;2023-03-20T09:40:26;96671.06;;;15.69;33.89
44079;BME280;29744;49.078;12.878;2023-03-20T09:50:37;96670.16;;;15.65;33.44
44079;BME280;29744;49.078;12.878;2023-03-20T09:55:40;96661.88;;;15.62;33.90
44079;BME280;29744;49.078;12.878;2023-03-20T10:00:44;96660.31;;;15.61;33.43
44079;BME280;29744;49.078;12.878;2023-03-20T10:05:49;96657.13;;;15.59;33.62
44079;BME280;29744;49.078;12.878;2023-03-20T10:11:05;96663.50;;;15.54;33.58
44079;BME280;29744;49.078;12.878;2023-03-20T10:16:21;96653.03;;;15.53;33.52
44079;BME280;29744;49.078;12.878;2023-03-20T10:21:36;96648.25;;;15.50;33.87
44079;BME280;29744;49.078;12.878;2023-03-20T10:26:39;96642.06;;;15.49;33.83
44079;BME280;29744;49.078;12.878;2023-03-20T10:32:03;96648.13;;;15.46;33.71
44079;BME280;29744;49.078;12.878;2023-03-20T10:42:16;96650.34;;;15.44;33.54
44079;BME280;29744;49.078;12.878;2023-03-20T10:47:20;96647.97;;;15.42;34.14
44079;BME280;29744;49.078;12.878;2023-03-20T10:52:29;96640.97;;;15.41;34.04
44079;BME280;29744;49.078;12.878;2023-03-20T10:57:34;96644.81;;;15.40;34.05
44079;BME280;29744;49.078;12.878;2023-03-20T11:02:37;96633.19;;;15.40;33.79
44079;BME280;29744;49.078;12.878;2023-03-20T11:07:37;96636.22;;;15.38;33.96
44079;BME280;29744;49.078;12.878;2023-03-20T11:12:47;96633.06;;;15.36;34.24
44079;BME280;29744;49.078;12.878;2023-03-20T11:17:58;96626.06;;;15.35;34.05
44079;BME280;29744;49.078;12.878;2023-03-20T11:23:02;96620.34;;;15.37;34.27
44079;BME280;29744;49.078;12.878;2023-03-20T11:33:25;96620.34;;;15.37;33.74
44079;BME280;29744;49.078;12.878;2023-03-20T11:38:29;96624.16;;;15.36;34.13
44079;BME280;29744;49.078;12.878;2023-03-20T11:43:36;96622.56;;;15.35;34.05
44079;BME280;29744;49.078;12.878;2023-03-20T11:48:42;96614.78;;;15.33;34.28
44079;BME280;29744;49.078;12.878;2023-03-20T12:09:00;96608.13;;;15.31;33.76
44079;BME280;29744;49.078;12.878;2023-03-20T12:14:03;96602.25;;;15.29;34.19
44079;BME280;29744;49.078;12.878;2023-03-20T12:19:11;96604.81;;;15.25;34.36
44079;BME280;29744;49.078;12.878;2023-03-20T12:24:32;96596.56;;;15.22;34.26
44079;BME280;29744;49.078;12.878;2023-03-20T12:29:50;96594.50;;;15.19;34.29
44079;BME280;29744;49.078;12.878;2023-03-20T12:34:56;96598.66;;;15.16;34.32
44079;BME280;29744;49.078;12.878;2023-03-20T12:39:59;96598.19;;;15.14;34.08
44079;BME280;29744;49.078;12.878;2023-03-20T12:45:16;96602.63;;;15.10;34.55
44079;BME280;29744;49.078;12.878;2023-03-20T12:50:32;96593.28;;;15.07;34.53
44079;BME280;29744;49.078;12.878;2023-03-20T13:01:02;96587.41;;;15.05;34.47
44079;BME280;29744;49.078;12.878;2023-03-20T13:16:32;96573.44;;;15.03;34.34
44079;BME280;29744;49.078;12.878;2023-03-20T13:21:48;96571.84;;;15.02;34.39
44079;BME280;29744;49.078;12.878;2023-03-20T13:32:13;96578.66;;;15.00;34.42
44079;BME280;29744;49.078;12.878;2023-03-20T13:37:38;96580.09;;;14.97;34.36
44079;BME280;29744;49.078;12.878;2023-03-20T13:42:49;96574.69;;;14.97;34.14
44079;BME280;29744;49.078;12.878;2023-03-20T13:47:52;96570.88;;;14.98;34.08
44079;BME280;29744;49.078;12.878;2023-03-20T13:53:08;96566.59;;;14.97;34.64
44079;BME280;29744;49.078;12.878;2023-03-20T13:58:34;96562.63;;;14.95;34.16
44079;BME280;29744;49.078;12.878;2023-03-20T14:03:39;96562.63;;;14.95;34.50
44079;BME280;29744;49.078;12.878;2023-03-20T14:08:47;96556.75;;;14.93;34.21
44079;BME280;29744;49.078;12.878;2023-03-20T14:13:50;96552.47;;;14.92;34.27
44079;BME280;29744;49.078;12.878;2023-03-20T14:19:04;96554.69;;;14.90;34.17
44079;BME280;29744;49.078;12.878;2023-03-20T14:24:06;96559.63;;;14.88;34.49
44079;BME280;29744;49.078;12.878;2023-03-20T14:39:45;96587.91;;;14.81;34.70
44079;BME280;29744;49.078;12.878;2023-03-20T14:50:25;96578.88;;;14.77;34.58
44079;BME280;29744;49.078;12.878;2023-03-20T14:55:30;96573.47;;;14.77;34.89
44079;BME280;29744;49.078;12.878;2023-03-20T15:00:34;96563.00;;;14.76;34.56
44079;BME280;29744;49.078;12.878;2023-03-20T15:05:43;96566.81;;;14.75;34.68
44079;BME280;29744;49.078;12.878;2023-03-20T15:10:49;96568.72;;;14.74;34.97
44079;BME280;29744;49.078;12.878;2023-03-20T15:16:05;96560.16;;;14.72;34.67
44079;BME280;29744;49.078;12.878;2023-03-20T15:21:33;96560.78;;;14.69;35.01
44079;BME280;29744;49.078;12.878;2023-03-20T15:26:34;96551.56;;;14.70;34.80
44079;BME280;29744;49.078;12.878;2023-03-20T15:31:37;96552.38;;;14.71;34.99
44079;BME280;29744;49.078;12.878;2023-03-20T15:36:39;96551.56;;;14.70;34.82
44079;BME280;29744;49.078;12.878;2023-03-20T15:41:44;96555.06;;;14.71;34.86
44079;BME280;29744;49.078;12.878;2023-03-20T15:47:00;96548.41;;;14.68;34.48
44079;BME280;29744;49.078;12.878;2023-03-20T15:52:05;96549.19;;;14.69;35.11
44079;BME280;29744;49.078;12.878;2023-03-20T15:57:13;96553.81;;;14.68;34.94
44079;BME280;29744;49.078;12.878;2023-03-20T16:02:17;96554.91;;;14.67;34.82
44079;BME280;29744;49.078;12.878;2023-03-20T16:07:25;96558.72;;;14.66;34.47
44079;BME280;29744;49.078;12.878;2023-03-20T16:12:26;96551.75;;;14.65;34.83
44079;BME280;29744;49.078;12.878;2023-03-20T16:17:29;96547.16;;;14.66;34.76
44079;BME280;29744;49.078;12.878;2023-03-20T16:22:32;96543.81;;;14.69;35.17
44079;BME280;29744;49.078;12.878;2023-03-20T16:27:33;96547.44;;;14.73;34.89
44079;BME280;29744;49.078;12.878;2023-03-20T16:32:40;96543.78;;;14.77;34.86
44079;BME280;29744;49.078;12.878;2023-03-20T16:37:52;96550.91;;;14.82;35.11
44079;BME280;29744;49.078;12.878;2023-03-20T16:42:53;96545.47;;;14.91;35.21
44079;BME280;29744;49.078;12.878;2023-03-20T16:53:13;96557.69;;;15.05;34.73
44079;BME280;29744;49.078;12.878;2023-03-20T16:58:21;96550.34;;;15.14;34.83
44079;BME280;29744;49.078;12.878;2023-03-20T17:03:28;96560.00;;;15.24;34.37
44079;BME280;29744;49.078;12.878;2023-03-20T17:08:59;96554.88;;;15.31;34.43
44079;BME280;29744;49.078;12.878;2023-03-20T17:13:59;96557.22;;;15.41;34.64
44079;BME280;29744;49.078;12.878;2023-03-20T17:19:04;96564.94;;;15.52;34.24
44079;BME280;29744;49.078;12.878;2023-03-20T17:24:05;96566.00;;;15.59;34.49
44079;BME280;29744;49.078;12.878;2023-03-20T17:29:05;96565.97;;;15.68;34.58
44079;BME280;29744;49.078;12.878;2023-03-20T17:34:06;96568.63;;;15.76;34.45
44079;BME280;29744;49.078;12.878;2023-03-20T17:39:08;96569.72;;;15.84;34.35
44079;BME280;29744;49.078;12.878;2023-03-20T17:44:09;96567.28;;;15.91;34.06
44079;BME280;29744;49.078;12.878;2023-03-20T17:49:13;96572.94;;;15.98;34.05
44079;BME280;29744;49.078;12.878;2023-03-20T17:54:13;96573.88;;;16.02;34.17
44079;BME280;29744;49.078;12.878;2023-03-20T17:59:14;96577.16;;;16.08;33.73
44079;BME280;29744;49.078;12.878;2023-03-20T18:04:14;96583.50;;;16.12;33.88
44079;BME280;29744;49.078;12.878;2023-03-20T18:09:15;96581.25;;;16.14;33.88
44079;BME280;29744;49.078;12.878;2023-03-20T18:14:15;96586.34;;;16.16;34.13
44079;BME280;29744;49.078;12.878;2023-03-20T18:19:21;96584.88;;;16.18;33.99
44079;BME280;29744;49.078;12.878;2023-03-20T18:24:23;96582.97;;;16.19;34.09
44079;BME280;29744;49.078;12.878;2023-03-20T18:29:24;96580.28;;;16.19;34.11
44079;BME280;29744;49.078;12.878;2023-03-20T18:34:24;96583.78;;;16.19;33.95
44079;BME280;29744;49.078;12.878;2023-03-20T18:39:24;96591.44;;;16.17;33.51
44079;BME280;29744;49.078;12.878;2023-03-20T18:44:24;96585.22;;;16.17;33.76
44079;BME280;29744;49.078;12.878;2023-03-20T18:49:25;96584.44;;;16.16;33.89
44079;BME280;29744;49.078;12.878;2023-03-20T18:54:25;96589.38;;;16.14;33.59
44079;BME280;29744;49.078;12.878;2023-03-20T18:59:25;96584.28;;;16.13;34.13
44079;BME280;29744;49.078;12.878;2023-03-20T19:04:26;96583.84;;;16.10;33.68
44079;BME280;29744;49.078;12.878;2023-03-20T19:09:27;96578.75;;;16.09;33.86
44079;BME280;29744;49.078;12.878;2023-03-20T19:14:27;96587.53;;;16.06;34.09
44079;BME280;29744;49.078;12.878;2023-03-20T19:19:27;96590.09;;;16.02;34.04
44079;BME280;29744;49.078;12.878;2023-03-20T19:24:28;96580.72;;;16.00;33.77
44079;BME280;29744;49.078;12.878;2023-03-20T19:29:28;96586.81;;;15.97;33.86
44079;BME280;29744;49.078;12.878;2023-03-20T19:34:29;96587.13;;;15.95;33.88
44079;BME280;29744;49.078;12.878;2023-03-20T19:39:29;96589.03;;;15.95;34.12
44079;BME280;29744;49.078;12.878;2023-03-20T19:44:30;96584.28;;;15.92;33.95
44079;BME280;29744;49.078;12.878;2023-03-20T19:49:30;96590.03;;;15.90;33.78
44079;BME280;29744;49.078;12.878;2023-03-20T19:54:32;96599.25;;;15.89;33.87
44079;BME280;29744;49.078;12.878;2023-03-20T19:59:32;96600.38;;;15.88;34.04
44079;BME280;29744;49.078;12.878;2023-03-20T20:04:32;96599.91;;;15.86;34.18
44079;BME280;29744;49.078;12.878;2023-03-20T20:09:32;96601.03;;;15.85;33.71
44079;BME280;29744;49.078;12.878;2023-03-20T20:14:33;96605.66;;;15.85;34.00
44079;BME280;29744;49.078;12.878;2023-03-20T20:19:33;96609.47;;;15.84;33.78
44079;BME280;29744;49.078;12.878;2023-03-20T20:24:33;96615.22;;;15.82;33.85
44079;BME280;29744;49.078;12.878;2023-03-20T20:29:34;96607.09;;;15.82;33.92
44079;BME280;29744;49.078;12.878;2023-03-20T20:34:34;96594.69;;;15.81;33.99
44079;BME280;29744;49.078;12.878;2023-03-20T20:39:35;96587.72;;;15.80;34.21
44079;BME280;29744;49.078;12.878;2023-03-20T20:44:35;96589.63;;;15.80;33.95
44079;BME280;29744;49.078;12.878;2023-03-20T20:49:36;96598.81;;;15.78;34.28
44079;BME280;29744;49.078;12.878;2023-03-20T20:54:36;96598.81;;;15.78;33.80
44079;BME280;29744;49.078;12.878;2023-03-20T20:59:37;96603.44;;;15.78;34.08
44079;BME280;29744;49.078;12.878;2023-03-20T21:04:40;96600.72;;;15.78;33.94
44079;BME280;29744;49.078;12.878;2023-03-20T21:09:41;96600.25;;;15.76;34.14
44079;BME280;29744;49.078;12.878;2023-03-20T21:14:42;96603.75;;;15.76;34.03
44079;BME280;29744;49.078;12.878;2023-03-20T21:19:42;96606.78;;;15.75;33.82
44079;BME280;29744;49.078;12.878;2023-03-20T21:24:43;96603.63;;;15.73;34.18
44079;BME280;29744;49.078;12.878;2023-03-20T21:29:44;96603.16;;;15.71;34.00
44079;BME280;29744;49.078;12.878;2023-03-20T21:34:47;96599.66;;;15.70;34.03
44079;BME280;29744;49.078;12.878;2023-03-20T21:39:49;96598.09;;;15.69;33.92
44079;BME280;29744;49.078;12.878;2023-03-20T21:44:50;96604.13;;;15.66;34.32
44079;BME280;29744;49.078;12.878;2023-03-20T21:49:51;96601.75;;;15.65;33.84
44079;BME280;29744;49.078;12.878;2023-03-20T21:54:51;96604.00;;;15.63;34.15
44079;BME280;29744;49.078;12.878;2023-03-20T21:59:52;96600.84;;;15.61;34.15
44079;BME280;29744;49.078;12.878;2023-03-20T22:04:53;96596.06;;;15.58;34.16
44079;BME280;29744;49.078;12.878;2023-03-20T22:09:54;96591.78;;;15.57;33.78
44079;BME280;29744;49.078;12.878;2023-03-20T22:14:55;96592.13;;;15.55;34.38
44079;BME280;29744;49.078;12.878;2023-03-20T22:19:55;96594.69;;;15.52;34.23
44079;BME280;29744;49.078;12.878;2023-03-20T22:24:55;96603.91;;;15.51;34.37
44079;BME280;29744;49.078;12.878;2023-03-20T22:29:56;96602.66;;;15.48;34.26
44079;BME280;29744;49.078;12.878;2023-03-20T22:34:56;96606.78;;;15.45;34.23
44079;BME280;29744;49.078;12.878;2023-03-20T22:39:56;96601.72;;;15.44;34.03
44079;BME280;29744;49.078;12.878;2023-03-20T22:44:57;96601.25;;;15.42;34.17
44079;BME280;29744;49.078;12.878;2023-03-20T22:49:57;96601.56;;;15.40;34.35
44079;BME280;29744;49.078;12.878;2023-03-20T22:54:57;96591.09;;;15.39;33.93
44079;BME280;29744;49.078;12.878;2023-03-20T22:59:58;96596.81;;;15.37;34.14
44079;BME280;29744;49.078;12.878;2023-03-20T23:04:59;96599.84;;;15.36;33.98
44079;BME280;29744;49.078;12.878;2023-03-20T23:09:59;96593.19;;;15.33;34.58
44079;BME280;29744;49.078;12.878;2023-03-20T23:15:00;96597.31;;;15.31;34.35
44079;BME280;29744;49.078;12.878;2023-03-20T23:20:01;96601.13;;;15.30;34.14
44079;BME280;29744;49.078;12.878;2023-03-20T23:25:02;96600.66;;;15.28;34.55
44079;BME280;29744;49.078;12.878;2023-03-20T23:30:03;96592.41;;;15.24;34.09
44079;BME280;29744;49.078;12.878;2023-03-20T23:35:05;96591.94;;;15.22;34.17
44079;BME280;29744;49.078;12.878;2023-03-20T23:40:06;96588.78;;;15.20;34.47
44079;BME280;29744;49.078;12.878;2023-03-20T23:45:07;96589.91;;;15.19;34.45
44079;BME280;29744;49.078;12.878;2023-03-20T23:50:08;96580.53;;;15.17;34.60
44079;BME280;29744;49.078;12.878;2023-03-20T23:55:08;96574.66;;;15.14;34.50
